Time;durP1;ratioP1;P1;durP2;ratioP2;P2;SDS_P1;SDS_P2;PMS_P1;PMS_P2;Temp;Humidity;BMP_temperature;BMP_pressure;BME280_temperature;BME280_humidity;BME280_pressure;Samples;Min_cycle;Max_cycle;Signal;HPM_P1;HPM_P2
2023/01/10 00:00:34;;;;;;;2.00;1.90;;;;;;;19.72;51.13;96963.34;4949679;28;20230;-91
2023/01/10 00:03:04;;;;;;;2.93;2.10;;;;;;;19.34;51.20;96907.06;4960157;28;20262;-90
2023/01/10 00:05:30;;;;;;;2.27;1.80;;;;;;;19.73;51.10;96970.22;4969731;28;20271;-91
2023/01/10 00:07:58;;;;;;;1.90;1.80;;;;;;;19.30;51.14;96884.88;4995019;28;20216;-92
2023/01/10 00:10:24;;;;;;;1.80;1.70;;;;;;;19.60;50.92;96942.63;4999812;28;20227;-91
2023/01/10 00:15:36;;;;;;;2.93;1.87;;;;;;;18.42;51.06;96751.63;4972710;28;20234;-89
2023/01/10 00:18:03;;;;;;;1.70;1.60;;;;;;;18.11;50.92;96691.34;4960047;28;20206;-91
2023/01/10 00:20:29;;;;;;;2.33;1.83;;;;;;;19.70;50.95;96962.47;4952123;28;20200;-91
2023/01/10 00:22:56;;;;;;;2.20;2.00;;;;;;;19.72;51.04;96967.63;5003979;28;20270;-90
2023/01/10 00:25:23;;;;;;;1.60;1.50;;;;;;;19.95;50.93;97003.09;4978703;28;20211;-91
2023/01/10 00:27:56;;;;;;;2.07;1.77;;;;;;;19.46;50.90;96915.06;4991674;28;20209;-90
2023/01/10 00:30:23;;;;;;;2.03;1.90;;;;;;;19.46;50.84;96927.78;4981745;28;20254;-91
2023/01/10 00:32:49;;;;;;;2.07;1.70;;;;;;;18.68;50.46;96783.75;4946551;28;20662;-90
2023/01/10 00:35:16;;;;;;;2.10;1.90;;;;;;;19.54;50.90;96947.56;4959364;29;20200;-91
2023/01/10 00:37:43;;;;;;;2.57;1.90;;;;;;;19.42;50.84;96920.88;4993228;28;20184;-91
2023/01/10 00:40:10;;;;;;;1.97;1.70;;;;;;;19.90;50.86;97011.47;4963627;29;20240;-90
2023/01/10 00:45:23;;;;;;;2.63;1.90;;;;;;;19.62;50.63;96966.50;5001383;28;20211;-90
2023/01/10 00:47:50;;;;;;;1.97;1.73;;;;;;;19.89;50.97;97017.38;4988558;28;20637;-88
2023/01/10 00:50:17;;;;;;;1.77;1.67;;;;;;;19.76;50.99;97007.66;4973351;28;20231;-90
2023/01/10 00:52:44;;;;;;;2.10;1.43;;;;;;;19.78;51.29;97000.94;4961366;28;20203;-90
2023/01/10 00:55:10;;;;;;;1.70;1.60;;;;;;;19.77;51.06;97014.47;4997601;28;20235;-91
2023/01/10 00:57:37;;;;;;;1.77;1.67;;;;;;;19.42;51.09;96949.75;4959299;29;20208;-89
2023/01/10 01:00:07;;;;;;;2.00;1.80;;;;;;;18.61;50.77;96821.69;4971593;28;20223;-91
2023/01/10 01:02:34;;;;;;;1.70;1.60;;;;;;;19.79;51.08;97034.13;4995902;28;20195;-91
2023/01/10 01:05:01;;;;;;;1.90;1.70;;;;;;;19.78;51.38;97024.72;4988292;28;20236;-91
2023/01/10 01:07:28;;;;;;;1.67;1.50;;;;;;;19.63;51.01;97006.44;4981419;28;20203;-90
2023/01/10 01:12:39;;;;;;;2.43;2.03;;;;;;;18.80;50.80;96901.19;4995798;28;20208;-91
2023/01/10 01:15:06;;;;;;;1.70;1.60;;;;;;;18.71;50.90;96874.63;4983303;28;20267;-91
2023/01/10 01:17:33;;;;;;;1.70;1.60;;;;;;;18.67;50.72;96894.00;4995609;28;20227;-91
2023/01/10 01:19:59;;;;;;;2.03;1.50;;;;;;;19.52;50.95;97009.50;4978134;28;20207;-92
2023/01/10 01:22:26;;;;;;;2.00;1.67;;;;;;;19.57;50.90;97033.47;4954569;28;20212;-91
2023/01/10 01:24:52;;;;;;;1.90;1.73;;;;;;;19.19;51.13;96972.81;4977905;28;20254;-90
2023/01/10 01:27:19;;;;;;;1.70;1.60;;;;;;;19.10;51.15;96963.22;4986623;28;20192;-92
2023/01/10 01:29:46;;;;;;;1.50;1.40;;;;;;;19.92;50.78;97097.38;4985854;28;20228;-89
2023/01/10 01:32:13;;;;;;;1.50;1.40;;;;;;;19.35;50.77;97001.38;4985029;28;20204;-91
2023/01/10 01:34:39;;;;;;;2.07;1.50;;;;;;;19.65;50.83;97062.56;4997396;28;20282;-91
2023/01/10 01:37:06;;;;;;;2.63;1.73;;;;;;;18.89;50.97;96941.34;4977813;28;20229;-91
2023/01/10 01:39:33;;;;;;;1.73;1.63;;;;;;;19.90;50.83;97124.50;4962626;28;20191;-90
2023/01/10 01:41:59;;;;;;;1.87;1.70;;;;;;;19.89;50.90;97117.69;5002213;28;20203;-89
2023/01/10 01:44:31;;;;;;;1.60;1.50;;;;;;;19.33;50.78;97020.00;4973285;28;20208;-92
2023/01/10 01:47:05;;;;;;;1.60;1.50;;;;;;;19.53;50.78;97052.00;4961900;28;20203;-90
2023/01/10 01:49:37;;;;;;;1.53;1.43;;;;;;;19.66;50.74;97082.16;4943738;28;20211;-91
2023/01/10 01:52:09;;;;;;;1.90;1.77;;;;;;;18.33;50.80;96850.53;4983154;28;20279;-90
2023/01/10 01:54:36;;;;;;;1.87;1.60;;;;;;;19.71;50.63;97099.31;4968433;28;20226;-91
2023/01/10 01:57:06;;;;;;;1.90;1.70;;;;;;;19.51;50.79;97071.50;4953530;28;20607;-90
2023/01/10 01:59:37;;;;;;;1.83;1.73;;;;;;;19.26;50.73;97023.13;4976668;28;20188;-89
2023/01/10 02:02:07;;;;;;;1.70;1.60;;;;;;;19.18;50.77;97022.91;4977080;28;20212;-91
2023/01/10 02:04:49;;;;;;;1.60;1.50;;;;;;;19.92;50.96;97148.38;4991262;28;20219;-91
2023/01/10 02:07:15;;;;;;;1.50;1.40;;;;;;;19.72;50.75;97118.88;4983283;28;20224;-91
2023/01/10 02:09:57;;;;;;;1.50;1.40;;;;;;;19.93;50.80;97173.06;4992859;28;20235;-91
2023/01/10 02:12:24;;;;;;;1.40;1.30;;;;;;;19.55;50.70;97098.81;4996322;28;20216;-91
2023/01/10 02:14:50;;;;;;;1.70;1.50;;;;;;;19.78;50.69;97146.25;4967201;28;20230;-90
2023/01/10 02:17:17;;;;;;;1.70;1.50;;;;;;;19.75;50.71;97138.50;4987162;28;20199;-90
2023/01/10 02:19:58;;;;;;;1.50;1.40;;;;;;;19.94;50.73;97168.84;4997221;28;20237;-91
2023/01/10 02:22:59;;;;;;;1.63;1.53;;;;;;;20.00;50.79;97184.31;4991973;28;20207;-90
2023/01/10 02:25:29;;;;;;;1.60;1.50;;;;;;;20.01;50.75;97188.59;4987929;28;20223;-91
2023/01/10 02:28:10;;;;;;;1.60;1.50;;;;;;;19.85;50.83;97164.34;4987733;28;20212;-90
2023/01/10 02:30:59;;;;;;;1.60;1.50;;;;;;;20.01;50.92;97191.13;4993861;28;20651;-90
2023/01/10 02:33:29;;;;;;;1.67;1.57;;;;;;;19.87;50.79;97169.47;4990104;28;20220;-90
2023/01/10 02:36:18;;;;;;;2.00;1.50;;;;;;;20.01;50.71;97186.03;4993671;28;20235;-90
2023/01/10 02:39:02;;;;;;;1.60;1.47;;;;;;;19.26;50.80;97059.66;4984192;28;20449;-91
2023/01/10 02:41:37;;;;;;;1.70;1.60;;;;;;;20.01;50.81;97190.28;4980811;28;20222;-91
2023/01/10 02:44:19;;;;;;;1.50;1.40;;;;;;;20.01;50.84;97197.94;4972401;28;20230;-91
2023/01/10 02:46:45;;;;;;;1.60;1.50;;;;;;;19.68;50.75;97146.78;4951770;28;20219;-91
2023/01/10 02:49:12;;;;;;;1.60;1.40;;;;;;;19.52;50.75;97114.88;4960992;28;20195;-90
2023/01/10 02:51:38;;;;;;;1.73;1.60;;;;;;;19.82;50.84;97166.78;5003451;28;20207;-90
2023/01/10 02:54:19;;;;;;;1.87;1.67;;;;;;;19.54;51.01;97127.66;4999723;28;20273;-90
2023/01/10 02:56:55;;;;;;;1.43;1.33;;;;;;;20.02;50.61;97212.41;4968932;28;20226;-90
2023/01/10 02:59:32;;;;;;;1.43;1.33;;;;;;;18.69;50.61;96980.59;5002139;28;20199;-91
2023/01/10 03:02:13;;;;;;;1.60;1.50;;;;;;;19.25;50.62;97087.63;4966970;28;20194;-90
2023/01/10 03:05:01;;;;;;;1.50;1.40;;;;;;;20.02;50.95;97228.59;4980526;28;20227;-90
2023/01/10 03:07:53;;;;;;;1.50;1.40;;;;;;;19.63;50.71;97164.47;4977425;28;20271;-88
2023/01/10 03:10:45;;;;;;;1.70;1.47;;;;;;;19.21;50.80;97106.16;4974037;28;20212;-91
2023/01/10 03:13:35;;;;;;;1.80;1.70;;;;;;;20.02;50.68;97249.00;4954073;28;20231;-90
2023/01/10 03:16:01;;;;;;;1.70;1.60;;;;;;;19.94;50.68;97235.16;4973343;28;20188;-91
2023/01/10 03:18:34;;;;;;;1.47;1.37;;;;;;;19.66;50.64;97189.22;4964889;28;20206;-90
2023/01/10 03:21:02;;;;;;;1.63;1.53;;;;;;;19.91;50.91;97238.47;4972336;28;20679;-90
2023/01/10 03:23:29;;;;;;;1.83;1.50;;;;;;;19.78;50.73;97215.09;4950947;28;20216;-90
2023/01/10 03:25:55;;;;;;;1.60;1.50;;;;;;;19.63;51.24;97210.38;4978698;28;20192;-91
2023/01/10 03:28:29;;;;;;;1.40;1.30;;;;;;;19.48;50.73;97181.00;4951907;28;20237;-90
2023/01/10 03:31:16;;;;;;;1.60;1.43;;;;;;;19.35;50.59;97159.34;4966599;28;20219;-90
2023/01/10 03:33:42;;;;;;;1.40;1.30;;;;;;;19.63;50.93;97206.97;4978214;28;20250;-90
2023/01/10 03:36:30;;;;;;;1.40;1.30;;;;;;;19.45;50.73;97181.75;5003654;28;20282;-90
2023/01/10 03:39:23;;;;;;;1.43;1.33;;;;;;;19.43;50.78;97188.50;4990013;28;20360;-91
2023/01/10 03:42:18;;;;;;;1.57;1.47;;;;;;;20.02;50.95;97290.66;4977378;28;20247;-88
2023/01/10 03:44:49;;;;;;;1.47;1.37;;;;;;;19.54;50.91;97220.28;5000748;28;20265;-90
2023/01/10 03:47:22;;;;;;;1.40;1.23;;;;;;;20.00;51.22;97306.75;4982373;28;20220;-91
2023/01/10 03:49:52;;;;;;;1.60;1.50;;;;;;;19.74;50.77;97261.69;4981850;28;20214;-91
2023/01/10 03:52:19;;;;;;;1.73;1.40;;;;;;;19.55;51.01;97251.72;4975886;28;20200;-91
2023/01/10 03:54:46;;;;;;;2.20;1.43;;;;;;;19.41;51.01;97222.38;4953254;28;20225;-90
2023/01/10 03:57:21;;;;;;;1.50;1.40;;;;;;;19.79;51.43;97294.19;4949533;28;20230;-91
2023/01/10 03:59:58;;;;;;;1.40;1.30;;;;;;;19.95;51.27;97323.59;4977714;28;20192;-92
2023/01/10 04:02:26;;;;;;;1.40;1.30;;;;;;;19.66;51.21;97278.44;4961352;28;20195;-90
2023/01/10 04:04:52;;;;;;;1.30;1.20;;;;;;;19.19;51.18;97225.00;4955421;28;20214;-88
2023/01/10 04:07:19;;;;;;;1.50;1.40;;;;;;;19.83;50.83;97341.03;4973623;28;20223;-91
2023/01/10 04:09:45;;;;;;;1.40;1.30;;;;;;;19.27;51.23;97246.56;4950938;28;20214;-91
2023/01/10 04:12:12;;;;;;;1.40;1.30;;;;;;;19.38;51.57;97256.28;4950263;28;20223;-88
2023/01/10 04:14:38;;;;;;;1.50;1.40;;;;;;;19.70;51.66;97321.06;4961544;28;20203;-86
2023/01/10 04:17:05;;;;;;;1.40;1.30;;;;;;;18.92;51.70;97185.88;4992220;28;20199;-91
2023/01/10 04:19:31;;;;;;;1.40;1.30;;;;;;;19.68;51.53;97326.09;4959409;28;20272;-89
2023/01/10 04:21:58;;;;;;;1.40;1.30;;;;;;;19.08;51.19;97239.03;4990075;28;20211;-90
2023/01/10 04:24:25;;;;;;;1.20;1.10;;;;;;;19.52;51.52;97313.69;4989663;28;20245;-91
2023/01/10 04:26:51;;;;;;;1.30;1.20;;;;;;;19.45;51.58;97309.16;4951243;28;20222;-90
2023/01/10 04:29:18;;;;;;;1.30;1.20;;;;;;;19.60;51.43;97331.78;4963384;28;20209;-91
2023/01/10 04:31:44;;;;;;;1.43;1.33;;;;;;;19.21;51.50;97279.41;4980463;28;20238;-91
2023/01/10 04:34:11;;;;;;;1.33;1.23;;;;;;;19.84;51.43;97391.25;4979072;28;20346;-91
2023/01/10 04:36:38;;;;;;;1.73;1.37;;;;;;;19.68;51.37;97361.81;4978187;28;20225;-88
2023/01/10 04:39:06;;;;;;;1.27;1.17;;;;;;;19.24;51.46;97293.13;4964652;28;20823;-90
2023/01/10 04:41:33;;;;;;;1.37;1.27;;;;;;;19.22;51.56;97288.78;4948785;28;20195;-90
2023/01/10 04:44:00;;;;;;;1.77;1.40;;;;;;;19.39;51.46;97319.16;4960925;28;20204;-91
2023/01/10 04:46:26;;;;;;;1.40;1.30;;;;;;;19.66;51.46;97382.97;4986513;28;20204;-89
2023/01/10 04:48:53;;;;;;;1.30;1.20;;;;;;;19.80;51.52;97417.44;4974946;28;20200;-90
2023/01/10 04:51:20;;;;;;;1.30;1.20;;;;;;;19.47;51.52;97358.53;4992209;28;20220;-90
2023/01/10 04:53:46;;;;;;;1.60;1.30;;;;;;;19.04;51.30;97293.25;4956969;28;20228;-91
2023/01/10 04:56:17;;;;;;;1.30;1.20;;;;;;;18.30;51.41;97160.75;4954370;28;20228;-88
2023/01/10 04:58:44;;;;;;;1.40;1.30;;;;;;;19.52;51.12;97377.41;4993167;28;20207;-90
2023/01/10 05:01:16;;;;;;;1.20;1.10;;;;;;;19.51;51.33;97374.78;4936038;28;20319;-90
2023/01/10 05:03:42;;;;;;;1.40;1.30;;;;;;;19.60;51.29;97392.97;4950256;28;20240;-89
2023/01/10 05:06:09;;;;;;;1.30;1.20;;;;;;;19.30;51.38;97338.38;4957507;28;20208;-91
2023/01/10 05:08:35;;;;;;;1.27;1.17;;;;;;;19.42;51.23;97382.97;4952931;29;20235;-91
2023/01/10 05:11:02;;;;;;;1.50;1.40;;;;;;;19.75;51.38;97441.94;4952356;28;20220;-90
2023/01/10 05:13:28;;;;;;;3.10;1.30;;;;;;;19.29;51.56;97367.19;4947000;28;20238;-90
2023/01/10 05:15:56;;;;;;;1.10;1.10;;;;;;;19.49;51.32;97407.00;4971672;28;20196;-88
2023/01/10 05:18:27;;;;;;;1.53;1.30;;;;;;;19.38;51.37;97393.00;4974692;28;20230;-90
2023/01/10 05:21:07;;;;;;;1.40;1.30;;;;;;;19.76;51.43;97466.59;4958510;28;20282;-91
2023/01/10 05:23:34;;;;;;;1.40;1.30;;;;;;;18.21;51.42;97240.09;4946613;28;20255;-92
2023/01/10 05:26:08;;;;;;;1.43;1.30;;;;;;;19.55;51.60;97437.81;4975501;28;20199;-90
2023/01/10 05:28:36;;;;;;;1.30;1.20;;;;;;;19.70;51.59;97469.81;4971545;28;20230;-90
2023/01/10 05:31:05;;;;;;;1.20;1.10;;;;;;;19.70;51.43;97479.13;4947246;28;20275;-90
2023/01/10 05:33:31;;;;;;;1.10;1.10;;;;;;;19.32;51.09;97415.72;4978905;28;20227;-91
2023/01/10 05:36:04;;;;;;;1.30;1.20;;;;;;;18.37;51.51;97258.47;4996702;28;20187;-89
2023/01/10 05:38:37;;;;;;;1.20;1.10;;;;;;;19.20;51.39;97405.03;4974545;28;20219;-91
2023/01/10 05:41:04;;;;;;;1.30;1.20;;;;;;;18.27;51.47;97253.88;4944867;28;20231;-90
2023/01/10 05:43:31;;;;;;;1.40;1.30;;;;;;;19.55;51.32;97476.03;4946436;28;20254;-89
2023/01/10 05:45:57;;;;;;;1.20;1.13;;;;;;;19.77;51.49;97521.88;4944624;28;20659;-88
2023/01/10 05:48:24;;;;;;;1.30;1.20;;;;;;;19.29;51.32;97448.72;4965334;28;20691;-90
2023/01/10 05:50:50;;;;;;;1.37;1.27;;;;;;;19.38;51.67;97461.81;4952350;28;20250;-91
2023/01/10 05:53:18;;;;;;;1.23;1.13;;;;;;;18.95;51.45;97405.81;4968204;28;20228;-90
2023/01/10 05:55:55;;;;;;;1.60;1.50;;;;;;;18.86;51.60;97390.19;4955416;29;20283;-90
2023/01/10 05:58:22;;;;;;;1.30;1.20;;;;;;;19.34;51.57;97463.38;4963251;28;20214;-90
2023/01/10 06:00:48;;;;;;;1.30;1.20;;;;;;;19.62;51.71;97511.13;4964789;28;20206;-90
2023/01/10 06:03:15;;;;;;;1.30;1.20;;;;;;;19.45;51.69;97494.38;4935730;28;20250;-90
2023/01/10 06:05:41;;;;;;;1.20;1.10;;;;;;;19.23;52.04;97461.22;4932923;29;20226;-90
2023/01/10 06:08:08;;;;;;;1.30;1.20;;;;;;;19.34;51.50;97501.63;4964639;28;20656;-90
2023/01/10 06:10:35;;;;;;;1.30;1.20;;;;;;;19.25;51.49;97485.94;4937613;28;20196;-90
2023/01/10 06:13:01;;;;;;;1.40;1.30;;;;;;;19.00;51.21;97441.63;4992509;28;20243;-90
2023/01/10 06:15:28;;;;;;;1.10;1.00;;;;;;;19.25;51.62;97503.78;4936428;28;20208;-91
2023/01/10 06:17:54;;;;;;;1.33;1.23;;;;;;;18.95;51.61;97449.09;4969433;28;20586;-90
2023/01/10 06:20:21;;;;;;;1.30;1.20;;;;;;;19.10;51.20;97484.50;4970379;28;20195;-91
2023/01/10 06:22:48;;;;;;;1.20;1.10;;;;;;;19.56;51.55;97561.88;4962776;28;20722;-91
2023/01/10 06:25:14;;;;;;;1.40;1.30;;;;;;;18.84;51.41;97452.06;4991704;28;20294;-90
2023/01/10 06:27:41;;;;;;;1.30;1.20;;;;;;;18.55;51.24;97406.78;4956884;28;20190;-90
2023/01/10 06:30:09;;;;;;;1.70;1.60;;;;;;;19.66;51.01;97594.56;4973931;28;20211;-91
2023/01/10 06:32:36;;;;;;;2.07;1.80;;;;;;;19.35;49.72;97543.22;4973022;28;20212;-90
2023/01/10 06:35:03;;;;;;;1.70;1.60;;;;;;;19.59;48.85;97598.56;4961263;28;20220;-91
2023/01/10 06:37:30;;;;;;;3.63;1.63;;;;;;;19.69;48.08;97615.94;4958835;28;20262;-91
2023/01/10 06:39:56;;;;;;;2.83;1.80;;;;;;;18.65;47.67;97457.25;4963801;28;20247;-92
2023/01/10 06:42:23;;;;;;;1.70;1.60;;;;;;;19.47;47.18;97598.09;4959750;28;20188;-91
2023/01/10 06:44:50;;;;;;;1.60;1.50;;;;;;;18.99;46.07;97540.09;4971420;28;20228;-91
2023/01/10 06:47:16;;;;;;;2.27;2.07;;;;;;;19.22;46.54;97579.22;4999014;28;20246;-91
2023/01/10 06:49:43;;;;;;;2.10;1.90;;;;;;;19.50;46.49;97630.47;4970883;28;20230;-89
2023/01/10 06:52:10;;;;;;;3.10;1.93;;;;;;;19.67;46.94;97662.59;4986338;28;20219;-90
2023/01/10 06:54:36;;;;;;;1.77;1.67;;;;;;;19.39;47.45;97621.56;4950368;28;20246;-88
2023/01/10 06:57:03;;;;;;;2.00;1.80;;;;;;;19.32;48.11;97627.19;4949067;28;20288;-88
2023/01/10 06:59:30;;;;;;;3.10;1.97;;;;;;;19.20;48.09;97607.19;4942008;28;20191;-91
2023/01/10 07:01:56;;;;;;;1.80;1.70;;;;;;;18.75;48.37;97544.22;4965521;28;20179;-95
2023/01/10 07:04:23;;;;;;;1.53;1.43;;;;;;;18.89;48.50;97573.63;4976984;28;20205;-94
2023/01/10 07:06:50;;;;;;;3.17;1.90;;;;;;;18.61;48.74;97536.81;4983693;28;20218;-93
2023/01/10 07:09:16;;;;;;;1.70;1.60;;;;;;;18.72;48.71;97559.38;4980727;28;20222;-93
2023/01/10 07:11:43;;;;;;;1.67;1.57;;;;;;;19.10;49.05;97637.31;4983553;28;20210;-92
2023/01/10 07:14:10;;;;;;;1.60;1.50;;;;;;;19.14;48.95;97650.25;4953530;28;20601;-90
2023/01/10 07:16:36;;;;;;;10.03;1.77;;;;;;;19.39;48.36;97698.00;4938948;28;20198;-89
2023/01/10 07:19:03;;;;;;;3.23;1.97;;;;;;;19.49;48.38;97716.28;4937318;28;20204;-89
2023/01/10 07:21:29;;;;;;;2.20;1.70;;;;;;;18.98;48.34;97634.28;4953810;28;20218;-90
2023/01/10 07:23:56;;;;;;;3.33;1.57;;;;;;;19.05;49.24;97651.53;4968964;28;20265;-90
2023/01/10 07:26:23;;;;;;;1.90;1.70;;;;;;;19.12;48.90;97668.81;4933157;28;20584;-89
2023/01/10 07:28:49;;;;;;;2.37;1.67;;;;;;;19.36;49.11;97708.94;4965370;28;20282;-90
2023/01/10 07:31:17;;;;;;;4.33;1.60;;;;;;;19.15;49.19;97685.09;4933481;28;20259;-90
2023/01/10 07:33:44;;;;;;;1.83;1.73;;;;;;;19.16;49.12;97688.53;4954554;28;20254;-90
2023/01/10 07:36:10;;;;;;;2.00;1.80;;;;;;;19.07;49.52;97688.16;4933519;28;20203;-90
2023/01/10 07:38:37;;;;;;;2.10;1.57;;;;;;;19.43;49.17;97764.47;4981218;28;20207;-91
2023/01/10 07:41:04;;;;;;;1.90;1.60;;;;;;;18.82;49.39;97650.59;4951831;28;20207;-89
2023/01/10 07:43:30;;;;;;;2.07;1.50;;;;;;;19.38;49.57;97747.22;4987055;28;20226;-91
2023/01/10 07:45:58;;;;;;;1.57;1.47;;;;;;;19.21;49.70;97725.22;4934136;28;20269;-90
2023/01/10 07:48:25;;;;;;;1.37;1.27;;;;;;;18.25;49.25;97564.13;4956988;28;20192;-93
2023/01/10 07:50:58;;;;;;;4.90;1.80;;;;;;;19.71;49.52;97818.31;4999350;28;20222;-90
2023/01/10 07:53:25;;;;;;;1.80;1.50;;;;;;;18.85;49.53;97676.19;4990798;28;20200;-91
2023/01/10 07:55:52;;;;;;;1.60;1.50;;;;;;;19.29;49.48;97746.84;4998795;28;20184;-91
2023/01/10 07:58:18;;;;;;;1.53;1.43;;;;;;;18.21;49.46;97563.13;4999743;28;20252;-91
2023/01/10 08:00:45;;;;;;;1.87;1.47;;;;;;;18.92;49.62;97693.44;4998310;28;20219;-91
2023/01/10 08:03:12;;;;;;;1.50;1.40;;;;;;;19.24;49.61;97756.81;4999791;28;20275;-91
2023/01/10 08:05:39;;;;;;;1.70;1.30;;;;;;;18.88;49.68;97701.78;4978600;28;20219;-90
2023/01/10 08:08:06;;;;;;;1.40;1.30;;;;;;;19.56;49.74;97817.69;5024252;23;20274;-89
2023/01/10 08:10:33;;;;;;;1.40;1.30;;;;;;;18.67;49.66;97679.63;4991552;28;20234;-90
2023/01/10 08:13:00;;;;;;;1.53;1.43;;;;;;;19.41;49.84;97808.50;4964643;28;20238;-89
2023/01/10 08:15:44;;;;;;;1.40;1.30;;;;;;;18.65;50.08;97671.06;4977440;28;20210;-87
2023/01/10 08:18:10;;;;;;;1.80;1.30;;;;;;;18.87;49.81;97722.09;4946979;28;20238;-89
2023/01/10 08:20:37;;;;;;;1.57;1.30;;;;;;;18.65;49.87;97692.28;4942912;28;20211;-91
2023/01/10 08:23:04;;;;;;;1.40;1.30;;;;;;;19.23;50.03;97788.19;4944337;28;20203;-89
2023/01/10 08:25:30;;;;;;;2.20;1.40;;;;;;;19.30;50.37;97815.72;4975593;28;20638;-89
2023/01/10 08:27:57;;;;;;;3.13;1.30;;;;;;;19.68;49.96;97874.28;4960324;28;20206;-88
2023/01/10 08:30:24;;;;;;;1.40;1.30;;;;;;;19.11;50.25;97781.69;4974551;28;20298;-88
2023/01/10 08:32:51;;;;;;;1.67;1.30;;;;;;;18.97;50.05;97750.56;4975418;28;20593;-89
2023/01/10 08:35:17;;;;;;;1.50;1.40;;;;;;;19.57;50.12;97860.19;4941926;28;20246;-89
2023/01/10 08:37:44;;;;;;;1.47;1.20;;;;;;;19.15;49.59;97799.72;4967766;28;20677;-89
2023/01/10 08:40:11;;;;;;;1.33;1.23;;;;;;;19.37;49.95;97839.78;4959203;28;20215;-89
2023/01/10 08:42:37;;;;;;;2.73;1.20;;;;;;;18.83;49.99;97750.78;4976054;28;20195;-89
2023/01/10 08:45:04;;;;;;;4.20;1.77;;;;;;;19.08;49.30;97789.22;4960708;28;20249;-88
2023/01/10 08:47:31;;;;;;;3.63;2.13;;;;;;;19.35;47.75;97841.38;4975703;28;20701;-88
2023/01/10 08:49:57;;;;;;;3.63;1.70;;;;;;;19.69;47.63;97898.13;4974712;28;20223;-89
2023/01/10 08:52:24;;;;;;;2.20;2.00;;;;;;;19.09;47.56;97790.94;4966843;28;20309;-89
2023/01/10 08:54:51;;;;;;;3.60;2.03;;;;;;;19.08;48.41;97827.44;4954062;28;20609;-89
2023/01/10 08:57:17;;;;;;;2.57;1.77;;;;;;;19.00;48.50;97793.09;4945118;28;20667;-89
2023/01/10 08:59:44;;;;;;;2.17;1.97;;;;;;;19.24;48.80;97832.38;4972381;28;20262;-89
2023/01/10 09:02:13;;;;;;;2.57;2.00;;;;;;;18.75;48.54;97749.56;4990777;28;20203;-89
2023/01/10 09:04:40;;;;;;;2.13;1.73;;;;;;;18.42;48.59;97697.19;4986534;28;20260;-88
2023/01/10 09:07:07;;;;;;;1.87;1.67;;;;;;;19.00;49.01;97805.84;4946258;28;20249;-89
2023/01/10 09:09:35;;;;;;;1.93;1.60;;;;;;;19.16;48.77;97823.53;4972327;28;20245;-89
2023/01/10 09:12:53;;;;;;;3.40;1.80;;;;;;;19.53;49.04;97903.34;4950588;28;20309;-89
2023/01/10 09:14:48;;;;;;;2.23;1.70;;;;;;;19.30;49.01;97868.38;4981279;28;20217;-89
2023/01/10 09:17:15;;;;;;;1.90;1.80;;;;;;;19.36;48.89;97892.41;4958685;28;20213;-89
2023/01/10 09:19:41;;;;;;;2.60;1.90;;;;;;;19.39;48.73;97895.09;4999166;28;20779;-89
2023/01/10 09:22:08;;;;;;;2.93;1.70;;;;;;;19.14;49.36;97859.16;4998432;28;20289;-89
2023/01/10 09:24:36;;;;;;;2.30;1.77;;;;;;;19.48;49.39;97918.44;4938479;28;20209;-90
2023/01/10 09:27:02;;;;;;;1.87;1.50;;;;;;;18.73;49.44;97800.41;4949341;28;20203;-89
2023/01/10 09:29:29;;;;;;;1.93;1.53;;;;;;;19.25;49.13;97903.81;4990031;28;20231;-89
2023/01/10 09:31:56;;;;;;;1.50;1.40;;;;;;;19.08;49.52;97878.38;4966600;28;20227;-89
2023/01/10 09:34:23;;;;;;;1.90;1.50;;;;;;;19.28;49.22;97916.72;4973757;28;20276;-89
2023/01/10 09:36:50;;;;;;;1.83;1.50;;;;;;;17.85;49.59;97683.53;4974857;28;20198;-89
2023/01/10 09:39:16;;;;;;;2.73;1.80;;;;;;;19.09;49.38;97887.75;4975161;28;20718;-89
2023/01/10 09:41:50;;;;;;;1.50;1.40;;;;;;;19.70;49.41;97995.06;4947625;28;20285;-89
2023/01/10 09:44:29;;;;;;;2.40;1.60;;;;;;;19.30;49.59;97939.72;4984851;28;20264;-89
2023/01/10 09:47:00;;;;;;;3.23;1.80;;;;;;;19.71;49.67;97999.38;4968565;28;20218;-89
2023/01/10 09:50:02;;;;;;;1.93;1.50;;;;;;;19.32;49.50;97941.53;4978424;28;20222;-89
2023/01/10 09:52:41;;;;;;;1.70;1.60;;;;;;;19.17;49.50;97928.06;4964685;28;20595;-89
2023/01/10 09:55:35;;;;;;;1.67;1.40;;;;;;;19.69;49.59;98018.81;4966486;28;20213;-89
2023/01/10 09:58:15;;;;;;;1.70;1.50;;;;;;;19.34;49.68;97973.06;4954482;28;20202;-89
2023/01/10 10:01:03;;;;;;;1.50;1.40;;;;;;;19.70;49.80;98018.03;4942746;28;20216;-89
2023/01/10 10:04:08;;;;;;;3.27;1.73;;;;;;;19.71;49.87;98022.31;4994057;28;20202;-90
2023/01/10 10:06:35;;;;;;;2.43;1.40;;;;;;;19.22;49.64;97935.91;4985688;28;20265;-89
2023/01/10 10:09:01;;;;;;;1.40;1.30;;;;;;;19.49;49.63;97977.97;4990163;28;20252;-89
2023/01/10 10:11:48;;;;;;;1.67;1.47;;;;;;;19.70;49.81;98004.41;4958360;28;20211;-89
2023/01/10 10:14:37;;;;;;;1.60;1.50;;;;;;;19.70;49.83;98001.84;4947342;28;20306;-89
2023/01/10 10:17:32;;;;;;;1.73;1.60;;;;;;;19.70;49.89;97996.75;4991791;28;20285;-89
2023/01/10 10:20:11;;;;;;;1.37;1.27;;;;;;;19.25;49.78;97934.38;4982033;28;20229;-89
2023/01/10 10:22:40;;;;;;;1.40;1.30;;;;;;;19.71;49.84;98016.31;4973210;28;20202;-89
2023/01/10 10:25:29;;;;;;;2.07;1.57;;;;;;;19.71;49.65;98022.31;4998712;28;20207;-89
2023/01/10 10:28:09;;;;;;;1.70;1.40;;;;;;;18.98;49.87;97896.59;4989452;28;20207;-89
2023/01/10 10:30:51;;;;;;;1.50;1.30;;;;;;;19.73;49.80;98010.50;4966917;28;20273;-89
2023/01/10 10:33:27;;;;;;;1.63;1.33;;;;;;;19.73;49.69;98023.25;4988607;28;20233;-89
2023/01/10 10:36:01;;;;;;;2.70;1.70;;;;;;;19.55;49.59;97983.31;4989343;28;20229;-87
2023/01/10 10:38:32;;;;;;;3.40;1.90;;;;;;;19.39;49.21;97953.72;4949179;28;20306;-89
2023/01/10 10:40:59;;;;;;;2.03;1.67;;;;;;;19.55;49.08;97970.56;4961873;28;20576;-89
2023/01/10 10:43:30;;;;;;;1.63;1.40;;;;;;;19.08;49.29;97901.31;4953884;28;20206;-89
2023/01/10 10:46:08;;;;;;;1.70;1.50;;;;;;;19.73;49.50;98014.72;4990065;28;20611;-89
2023/01/10 10:48:46;;;;;;;2.90;1.63;;;;;;;19.73;49.47;98022.38;4950862;28;20713;-89
2023/01/10 10:51:19;;;;;;;2.93;1.70;;;;;;;19.11;49.54;97911.63;4968537;28;20206;-89
2023/01/10 10:53:47;;;;;;;2.07;1.60;;;;;;;19.33;49.34;97962.78;4966500;28;20248;-89
2023/01/10 10:56:15;;;;;;;2.33;1.53;;;;;;;19.47;49.56;97975.34;4953799;28;20220;-89
2023/01/10 10:58:43;;;;;;;4.80;1.50;;;;;;;19.32;49.81;97951.72;4946682;28;20233;-87
2023/01/10 11:01:13;;;;;;;3.03;1.67;;;;;;;18.26;49.78;97771.06;4961647;28;20619;-88
2023/01/10 11:04:04;;;;;;;3.30;1.87;;;;;;;19.40;49.67;97963.13;4961210;28;20199;-89
2023/01/10 11:06:30;;;;;;;2.30;1.50;;;;;;;18.29;49.41;97783.91;4970147;28;20199;-89
2023/01/10 11:09:01;;;;;;;3.30;1.93;;;;;;;19.72;49.29;98026.59;4964613;28;20219;-88
2023/01/10 11:11:33;;;;;;;4.03;1.70;;;;;;;19.74;49.28;98025.00;4973651;28;20225;-87
2023/01/10 11:14:01;;;;;;;2.63;1.80;;;;;;;19.21;49.23;97934.16;4960365;28;20257;-88
2023/01/10 11:16:30;;;;;;;2.63;1.97;;;;;;;19.32;49.24;97955.94;4970300;28;20207;-89
2023/01/10 11:19:09;;;;;;;3.13;2.07;;;;;;;19.74;49.14;98029.22;4950717;28;20218;-87
2023/01/10 11:21:37;;;;;;;3.07;2.17;;;;;;;19.29;49.19;97954.13;5007530;28;20218;-88
2023/01/10 11:24:04;;;;;;;2.67;2.00;;;;;;;19.14;49.13;97921.94;4947667;28;20203;-88
2023/01/10 11:26:39;;;;;;;3.50;2.10;;;;;;;19.76;49.17;98032.72;4960526;28;20207;-88
2023/01/10 11:29:19;;;;;;;2.97;2.10;;;;;;;19.75;49.15;98036.94;4946003;28;20316;-88
2023/01/10 11:31:45;;;;;;;4.93;2.10;;;;;;;19.42;48.98;97989.53;4968337;28;20207;-88
2023/01/10 11:34:22;;;;;;;3.47;1.63;;;;;;;19.77;49.08;98035.34;4984781;28;20274;-88
2023/01/10 11:36:55;;;;;;;3.60;2.20;;;;;;;19.76;48.80;98046.34;4986856;28;20203;-88
2023/01/10 11:39:21;;;;;;;4.03;2.30;;;;;;;18.24;49.18;97787.09;4997122;28;20222;-88
2023/01/10 11:41:51;;;;;;;2.93;2.07;;;;;;;18.56;48.83;97831.00;4948322;28;20206;-88
2023/01/10 11:44:28;;;;;;;3.50;2.60;;;;;;;19.26;48.97;97953.97;4964435;28;20242;-87
2023/01/10 11:46:58;;;;;;;2.80;1.97;;;;;;;19.19;48.89;97939.19;4945040;28;20202;-88
2023/01/10 11:49:30;;;;;;;3.80;2.80;;;;;;;19.12;49.01;97934.63;4950170;28;20316;-89
2023/01/10 11:52:15;;;;;;;3.20;2.13;;;;;;;18.76;48.90;97859.09;4938263;28;20207;-89
2023/01/10 11:54:41;;;;;;;2.63;1.93;;;;;;;19.73;49.15;98020.72;4968007;28;20245;-86
2023/01/10 11:57:23;;;;;;;3.93;2.20;;;;;;;19.73;48.89;98014.72;4974870;28;20235;-88